Time;durP1;ratioP1;P1;durP2;ratioP2;P2;SDS_P1;SDS_P2;PMS_P1;PMS_P2;Temp;Humidity;BMP_temperature;BMP_pressure;BME280_temperature;BME280_humidity;BME280_pressure;Samples;Min_cycle;Max_cycle;Signal;HPM_P1;HPM_P2
2021/05/19 00:01:25;;;;;;;4.20;3.80;;;;;;;;;;5015915;28;20198;-83
2021/05/19 00:03:52;;;;;;;5.00;4.57;;;;;;;;;;5015840;28;20203;-83
2021/05/19 00:06:20;;;;;;;4.38;3.97;;;;;;;;;;5030351;28;20271;-83
2021/05/19 00:08:46;;;;;;;4.80;4.40;;;;;;;;;;5035438;28;20203;-83
2021/05/19 00:11:13;;;;;;;6.50;4.70;;;;;;;;;;5035075;28;20731;-83
2021/05/19 00:13:40;;;;;;;4.72;4.30;;;;;;;;;;5035427;28;20186;-83
2021/05/19 00:16:08;;;;;;;4.82;4.40;;;;;;;;;;5035096;28;20222;-83
2021/05/19 00:18:35;;;;;;;5.20;4.65;;;;;;;;;;5035693;28;20198;-83
2021/05/19 00:21:03;;;;;;;5.28;4.78;;;;;;;;;;5035113;28;20774;-83
2021/05/19 00:23:30;;;;;;;5.30;4.80;;;;;;;;;;5035293;28;20240;-83
2021/05/19 00:25:57;;;;;;;6.03;5.28;;;;;;;;;;5035617;28;20197;-83
2021/05/19 00:28:24;;;;;;;5.30;4.60;;;;;;;;;;5035294;28;20218;-83
2021/05/19 00:30:55;;;;;;;4.82;4.43;;;;;;;;;;5035594;28;20226;-83
2021/05/19 00:33:21;;;;;;;7.70;6.80;;;;;;;;;;5035098;28;20192;-83
2021/05/19 00:35:49;;;;;;;6.50;5.90;;;;;;;;;;5035200;28;20201;-83
2021/05/19 00:38:15;;;;;;;5.85;5.35;;;;;;;;;;5021559;28;20572;-83
2021/05/19 00:40:43;;;;;;;10.55;6.43;;;;;;;;;;5015966;28;20233;-83
2021/05/19 00:43:10;;;;;;;7.50;6.50;;;;;;;;;;5015186;28;20577;-83
2021/05/19 00:45:37;;;;;;;8.55;5.95;;;;;;;;;;5015769;28;20570;-83
2021/05/19 00:48:06;;;;;;;6.93;6.07;;;;;;;;;;5015657;28;20265;-83
2021/05/19 00:50:33;;;;;;;6.97;6.30;;;;;;;;;;5015286;28;20249;-83
2021/05/19 00:53:00;;;;;;;7.75;7.05;;;;;;;;;;5015373;28;20582;-83
2021/05/19 00:55:28;;;;;;;6.38;5.88;;;;;;;;;;5015484;28;20203;-83
2021/05/19 00:57:57;;;;;;;6.85;5.93;;;;;;;;;;5025618;28;20194;-83
2021/05/19 01:00:26;;;;;;;7.78;6.35;;;;;;;;;;5035740;28;20610;-83
2021/05/19 01:02:53;;;;;;;6.32;5.82;;;;;;;;;;5035347;28;20190;-82
2021/05/19 01:05:27;;;;;;;5.70;5.13;;;;;;;;;;5035127;28;20655;-83
2021/05/19 01:10:39;;;;;;;5.55;5.15;;;;;;;;;;5035395;28;20224;-83
2021/05/19 01:13:07;;;;;;;5.68;4.60;;;;;;;;;;5035394;28;20187;-83
2021/05/19 01:15:35;;;;;;;4.93;4.53;;;;;;;;;;5035694;28;20233;-82
2021/05/19 01:18:04;;;;;;;4.57;4.18;;;;;;;;;;5035008;28;20201;-83
2021/05/19 01:20:31;;;;;;;5.00;4.45;;;;;;;;;;5035494;28;20248;-83
2021/05/19 01:22:59;;;;;;;3.95;3.55;;;;;;;;;;5035660;28;20679;-83
2021/05/19 01:25:27;;;;;;;3.78;3.47;;;;;;;;;;5035534;28;20230;-83
2021/05/19 01:27:54;;;;;;;3.75;3.45;;;;;;;;;;5025507;28;20210;-83
2021/05/19 01:30:23;;;;;;;3.80;3.50;;;;;;;;;;5015263;28;20239;-83
2021/05/19 01:32:50;;;;;;;4.25;3.90;;;;;;;;;;5015616;28;20203;-83
2021/05/19 01:35:17;;;;;;;3.53;3.10;;;;;;;;;;5015275;28;20210;-83
2021/05/19 01:37:46;;;;;;;2.92;2.60;;;;;;;;;;5024422;28;20202;-83
2021/05/19 01:40:16;;;;;;;2.88;2.50;;;;;;;;;;5035817;28;20230;-83
2021/05/19 01:42:46;;;;;;;3.00;2.80;;;;;;;;;;5035437;28;20213;-83
2021/05/19 01:45:15;;;;;;;3.13;2.88;;;;;;;;;;5039205;28;20565;-83
2021/05/19 01:47:46;;;;;;;3.53;3.22;;;;;;;;;;5039486;28;20668;-83
2021/05/19 01:50:16;;;;;;;3.55;3.25;;;;;;;;;;5038959;28;20314;-83
2021/05/19 01:52:45;;;;;;;2.33;2.13;;;;;;;;;;5039248;28;20197;-84
2021/05/19 01:55:16;;;;;;;2.60;2.40;;;;;;;;;;5039065;28;20187;-84
2021/05/19 01:57:44;;;;;;;3.47;2.47;;;;;;;;;;5038768;28;20614;-83
2021/05/19 02:00:12;;;;;;;3.15;2.88;;;;;;;;;;5039224;28;20229;-83
2021/05/19 02:02:39;;;;;;;2.55;2.35;;;;;;;;;;5038758;28;20202;-83
2021/05/19 02:05:09;;;;;;;3.72;2.40;;;;;;;;;;5038547;28;20198;-83
2021/05/19 02:07:37;;;;;;;2.63;2.42;;;;;;;;;;5038924;28;20206;-83
2021/05/19 02:10:06;;;;;;;2.63;2.42;;;;;;;;;;5038404;28;20727;-83
2021/05/19 02:12:34;;;;;;;2.53;2.33;;;;;;;;;;5038822;28;20191;-83
2021/05/19 02:15:01;;;;;;;2.20;2.00;;;;;;;;;;5035924;28;20203;-83
2021/05/19 02:17:28;;;;;;;2.20;2.00;;;;;;;;;;5037218;28;20230;-84
2021/05/19 02:19:55;;;;;;;2.72;1.88;;;;;;;;;;5037765;28;20226;-83
2021/05/19 02:22:23;;;;;;;2.55;2.35;;;;;;;;;;5039010;28;20190;-83
2021/05/19 02:24:50;;;;;;;1.92;1.83;;;;;;;;;;5038697;28;20186;-83
2021/05/19 02:27:17;;;;;;;2.13;1.70;;;;;;;;;;5038804;28;20202;-83
2021/05/19 02:29:53;;;;;;;2.45;2.25;;;;;;;;;;5038925;28;20856;-83
2021/05/19 02:32:20;;;;;;;2.22;1.95;;;;;;;;;;5038689;28;20205;-83
2021/05/19 02:34:47;;;;;;;2.20;2.00;;;;;;;;;;5039295;28;20260;-84
2021/05/19 02:37:14;;;;;;;2.53;2.33;;;;;;;;;;5038878;28;20256;-83
2021/05/19 02:39:41;;;;;;;2.10;1.88;;;;;;;;;;5038867;28;20219;-83
2021/05/19 02:42:08;;;;;;;2.55;2.35;;;;;;;;;;5038652;28;20219;-83
2021/05/19 02:44:35;;;;;;;2.35;2.13;;;;;;;;;;5038996;28;20193;-84
2021/05/19 02:47:06;;;;;;;6.22;3.47;;;;;;;;;;5038898;28;20198;-83
2021/05/19 02:49:34;;;;;;;4.22;3.78;;;;;;;;;;5039398;28;20230;-83
2021/05/19 02:52:01;;;;;;;5.07;3.72;;;;;;;;;;5040214;28;20191;-83
2021/05/19 02:54:28;;;;;;;3.75;3.45;;;;;;;;;;5039872;28;20201;-84
2021/05/19 02:56:55;;;;;;;3.67;3.38;;;;;;;;;;5038098;28;20174;-83
2021/05/19 02:59:22;;;;;;;4.78;4.38;;;;;;;;;;5039096;28;20234;-83
2021/05/19 03:01:49;;;;;;;4.90;4.40;;;;;;;;;;5037428;28;20202;-83
2021/05/19 03:04:17;;;;;;;4.78;4.35;;;;;;;;;;5037551;28;20569;-83
2021/05/19 03:06:44;;;;;;;4.75;4.30;;;;;;;;;;5033633;28;20277;-83
2021/05/19 03:09:10;;;;;;;4.20;3.90;;;;;;;;;;5033452;28;20818;-83
2021/05/19 03:11:38;;;;;;;4.63;4.22;;;;;;;;;;5033450;28;20202;-83
2021/05/19 03:14:05;;;;;;;5.13;3.42;;;;;;;;;;5033813;28;20620;-83
2021/05/19 03:16:33;;;;;;;4.30;3.90;;;;;;;;;;5033474;28;20222;-83
2021/05/19 03:19:01;;;;;;;3.83;3.45;;;;;;;;;;5033711;28;20198;-82
2021/05/19 03:21:28;;;;;;;3.70;3.40;;;;;;;;;;5032994;28;20206;-83
2021/05/19 03:23:55;;;;;;;3.95;3.65;;;;;;;;;;5033763;28;20183;-83
2021/05/19 03:26:22;;;;;;;4.05;3.75;;;;;;;;;;5033613;28;20574;-83
2021/05/19 03:28:49;;;;;;;3.95;3.55;;;;;;;;;;5033117;28;20233;-83
2021/05/19 03:31:16;;;;;;;4.40;4.00;;;;;;;;;;5033399;28;20222;-83
2021/05/19 03:33:44;;;;;;;4.28;3.95;;;;;;;;;;5033620;28;20564;-82
2021/05/19 03:36:11;;;;;;;4.75;4.20;;;;;;;;;;5033345;28;20209;-83
2021/05/19 03:38:39;;;;;;;4.18;3.80;;;;;;;;;;5033332;28;20198;-82
2021/05/19 03:41:08;;;;;;;4.47;4.07;;;;;;;;;;5033046;28;20222;-83
2021/05/19 03:43:36;;;;;;;4.32;3.92;;;;;;;;;;5032931;28;20237;-83
2021/05/19 03:46:04;;;;;;;3.42;3.20;;;;;;;;;;5033098;28;20194;-83
2021/05/19 03:48:31;;;;;;;4.28;3.75;;;;;;;;;;5033076;28;20214;-82
2021/05/19 03:50:58;;;;;;;3.92;3.55;;;;;;;;;;5032870;28;20218;-82
2021/05/19 03:53:25;;;;;;;11.63;3.83;;;;;;;;;;5032594;28;20207;-83
2021/05/19 03:55:52;;;;;;;3.70;3.40;;;;;;;;;;5033044;28;20241;-82
2021/05/19 03:58:19;;;;;;;3.95;3.65;;;;;;;;;;5032908;28;20194;-83
2021/05/19 04:00:46;;;;;;;3.25;2.95;;;;;;;;;;5032213;28;20225;-83
2021/05/19 04:03:13;;;;;;;4.20;3.78;;;;;;;;;;5032896;28;20194;-82
2021/05/19 04:05:41;;;;;;;4.05;3.75;;;;;;;;;;5032376;28;20202;-82
2021/05/19 04:08:09;;;;;;;4.18;3.85;;;;;;;;;;5031824;28;20245;-82
2021/05/19 04:10:36;;;;;;;4.55;4.15;;;;;;;;;;5032658;28;20218;-82
2021/05/19 04:13:05;;;;;;;4.00;3.60;;;;;;;;;;5032692;28;20655;-82
2021/05/19 04:15:33;;;;;;;3.95;3.55;;;;;;;;;;5032479;28;20187;-82
2021/05/19 04:18:00;;;;;;;3.53;3.22;;;;;;;;;;5013098;28;20187;-82
2021/05/19 04:20:28;;;;;;;5.85;3.63;;;;;;;;;;5012315;28;20230;-82
2021/05/19 04:22:55;;;;;;;4.80;4.22;;;;;;;;;;5012607;28;20665;-82
2021/05/19 04:25:22;;;;;;;4.05;3.47;;;;;;;;;;5013080;28;20240;-82
2021/05/19 04:27:49;;;;;;;4.18;3.83;;;;;;;;;;5013043;28;20188;-82
2021/05/19 04:30:18;;;;;;;5.43;4.80;;;;;;;;;;5012301;28;20218;-82
2021/05/19 04:32:45;;;;;;;5.47;4.97;;;;;;;;;;5012835;28;20256;-82
2021/05/19 04:35:13;;;;;;;4.68;4.28;;;;;;;;;;5012828;28;20192;-82
2021/05/19 04:37:40;;;;;;;5.03;4.53;;;;;;;;;;5013054;28;20249;-83
2021/05/19 04:40:09;;;;;;;4.45;4.10;;;;;;;;;;5013899;28;20292;-83
2021/05/19 04:42:37;;;;;;;3.78;3.58;;;;;;;;;;5013175;28;20175;-83
2021/05/19 04:45:05;;;;;;;4.75;4.35;;;;;;;;;;5012981;28;20210;-83
2021/05/19 04:47:33;;;;;;;4.95;4.45;;;;;;;;;;5017327;28;20195;-83
2021/05/19 04:49:59;;;;;;;4.75;4.35;;;;;;;;;;5013163;28;20231;-83
2021/05/19 04:52:26;;;;;;;5.22;4.72;;;;;;;;;;5012976;28;20184;-83
2021/05/19 04:54:53;;;;;;;4.97;4.50;;;;;;;;;;5012717;28;20207;-82
2021/05/19 04:57:20;;;;;;;5.38;4.90;;;;;;;;;;5012855;28;20281;-83
2021/05/19 04:59:47;;;;;;;8.45;5.43;;;;;;;;;;5012956;28;20230;-83
2021/05/19 05:02:14;;;;;;;8.13;7.13;;;;;;;;;;5012704;28;20195;-83
2021/05/19 05:04:42;;;;;;;9.40;8.50;;;;;;;;;;5012496;28;20210;-83
2021/05/19 05:07:08;;;;;;;9.40;8.27;;;;;;;;;;5012306;28;20202;-83
2021/05/19 05:09:35;;;;;;;6.43;5.22;;;;;;;;;;5011956;28;20226;-83
2021/05/19 05:12:02;;;;;;;6.53;4.88;;;;;;;;;;5012459;28;20206;-83
2021/05/19 05:14:29;;;;;;;5.45;4.72;;;;;;;;;;5012444;28;20211;-82
2021/05/19 05:16:56;;;;;;;5.00;4.53;;;;;;;;;;5023827;28;20249;-83
2021/05/19 05:19:23;;;;;;;7.35;4.43;;;;;;;;;;5034724;28;20218;-83
2021/05/19 05:21:51;;;;;;;5.45;4.95;;;;;;;;;;5036273;28;20870;-83
2021/05/19 05:24:17;;;;;;;5.70;5.20;;;;;;;;;;5037100;28;20198;-83
2021/05/19 05:26:44;;;;;;;5.53;4.70;;;;;;;;;;5036258;28;20205;-83
2021/05/19 05:29:11;;;;;;;5.93;4.63;;;;;;;;;;5035502;28;20229;-84
2021/05/19 05:31:38;;;;;;;5.10;4.70;;;;;;;;;;5037347;28;20195;-84
2021/05/19 05:34:05;;;;;;;5.22;4.75;;;;;;;;;;5036087;28;20202;-84
2021/05/19 05:36:32;;;;;;;5.90;5.28;;;;;;;;;;5035644;28;20213;-83
2021/05/19 05:39:00;;;;;;;5.97;5.38;;;;;;;;;;5036015;28;20317;-83
2021/05/19 05:41:26;;;;;;;5.63;5.10;;;;;;;;;;5035789;28;20206;-84
2021/05/19 05:43:53;;;;;;;5.68;5.13;;;;;;;;;;5035680;28;20578;-84
2021/05/19 05:46:20;;;;;;;8.23;6.28;;;;;;;;;;5035081;28;20661;-84
2021/05/19 05:48:47;;;;;;;5.40;4.90;;;;;;;;;;5035475;28;20577;-83
2021/05/19 05:51:14;;;;;;;6.45;5.88;;;;;;;;;;5035495;28;20226;-83
2021/05/19 05:53:42;;;;;;;6.63;5.63;;;;;;;;;;5035496;28;20313;-83
2021/05/19 05:56:09;;;;;;;6.13;4.97;;;;;;;;;;5035317;28;20198;-83
2021/05/19 05:58:36;;;;;;;6.97;5.13;;;;;;;;;;5035834;28;20187;-83
2021/05/19 06:01:03;;;;;;;5.00;4.60;;;;;;;;;;5035043;28;20778;-83
2021/05/19 06:03:30;;;;;;;10.40;5.40;;;;;;;;;;5035143;28;20206;-83
2021/05/19 06:05:57;;;;;;;7.82;6.70;;;;;;;;;;5035126;28;20209;-83
2021/05/19 06:08:24;;;;;;;7.40;6.07;;;;;;;;;;5034736;28;20203;-83
2021/05/19 06:10:50;;;;;;;7.85;7.07;;;;;;;;;;5035388;28;20222;-84
2021/05/19 06:13:18;;;;;;;10.38;9.30;;;;;;;;;;5035047;28;20183;-83
2021/05/19 06:15:45;;;;;;;10.85;9.60;;;;;;;;;;5034780;28;20175;-84
2021/05/19 06:18:12;;;;;;;10.07;8.98;;;;;;;;;;5034897;28;20206;-84
2021/05/19 06:20:39;;;;;;;11.13;9.15;;;;;;;;;;5035196;28;20223;-84
2021/05/19 06:23:05;;;;;;;11.23;10.18;;;;;;;;;;5035261;28;20605;-83
2021/05/19 06:25:33;;;;;;;9.02;8.13;;;;;;;;;;5035230;28;20186;-83
2021/05/19 06:27:59;;;;;;;8.68;7.78;;;;;;;;;;5034970;28;20194;-84
2021/05/19 06:30:27;;;;;;;8.82;7.82;;;;;;;;;;5033811;28;20230;-84
2021/05/19 06:32:54;;;;;;;10.02;6.82;;;;;;;;;;5034921;28;20186;-83
2021/05/19 06:35:21;;;;;;;7.07;6.38;;;;;;;;;;5034829;28;20187;-84
2021/05/19 06:37:48;;;;;;;8.48;7.68;;;;;;;;;;5034984;28;20544;-84
2021/05/19 06:40:15;;;;;;;6.85;6.15;;;;;;;;;;5034712;28;20223;-85
2021/05/19 06:42:42;;;;;;;7.50;6.80;;;;;;;;;;5034577;28;20195;-84
2021/05/19 06:45:11;;;;;;;5.93;5.43;;;;;;;;;;5034796;28;20182;-83
2021/05/19 06:47:38;;;;;;;5.90;5.40;;;;;;;;;;5034913;28;20195;-84
2021/05/19 06:50:07;;;;;;;6.75;6.15;;;;;;;;;;5034761;28;20230;-83
2021/05/19 06:52:34;;;;;;;7.47;6.03;;;;;;;;;;5034642;28;20288;-84
2021/05/19 06:55:02;;;;;;;7.28;6.47;;;;;;;;;;5034501;28;20214;-84
2021/05/19 06:57:29;;;;;;;6.95;6.35;;;;;;;;;;5035128;28;20197;-83
2021/05/19 06:59:56;;;;;;;6.35;5.75;;;;;;;;;;5034564;28;20218;-84
2021/05/19 07:02:22;;;;;;;6.90;6.03;;;;;;;;;;5034314;28;20210;-83
2021/05/19 07:04:50;;;;;;;6.25;5.65;;;;;;;;;;5033517;28;20202;-83
2021/05/19 07:07:17;;;;;;;6.03;5.43;;;;;;;;;;5034161;28;20191;-84
2021/05/19 07:09:44;;;;;;;5.00;4.50;;;;;;;;;;5034205;28;20233;-84
2021/05/19 07:12:12;;;;;;;4.63;4.22;;;;;;;;;;5034462;28;20630;-85
2021/05/19 07:14:46;;;;;;;4.50;4.10;;;;;;;;;;5025951;28;20192;-83
2021/05/19 07:17:13;;;;;;;4.72;4.32;;;;;;;;;;5034124;28;20225;-84
2021/05/19 07:19:40;;;;;;;4.22;3.80;;;;;;;;;;5036319;28;20218;-85
2021/05/19 07:22:08;;;;;;;3.88;3.47;;;;;;;;;;5034553;28;20228;-84
2021/05/19 07:24:35;;;;;;;3.92;3.40;;;;;;;;;;5033409;28;20210;-85
2021/05/19 07:27:02;;;;;;;7.22;3.38;;;;;;;;;;5034036;28;20206;-84
2021/05/19 07:29:29;;;;;;;4.47;3.42;;;;;;;;;;5034918;28;20230;-85
2021/05/19 07:31:58;;;;;;;3.78;2.20;;;;;;;;;;5034103;28;20202;-84
2021/05/19 07:34:25;;;;;;;3.10;2.47;;;;;;;;;;5033908;28;20226;-85
2021/05/19 07:36:53;;;;;;;3.08;2.38;;;;;;;;;;5033492;28;20731;-84
2021/05/19 07:39:21;;;;;;;1.80;1.70;;;;;;;;;;5034194;28;20183;-83
2021/05/19 07:41:49;;;;;;;3.35;2.75;;;;;;;;;;5033570;28;20711;-84
2021/05/19 07:44:16;;;;;;;2.45;2.05;;;;;;;;;;5033976;28;20302;-84
2021/05/19 07:46:43;;;;;;;2.78;2.05;;;;;;;;;;5033853;28;20672;-85
2021/05/19 07:49:09;;;;;;;2.00;1.88;;;;;;;;;;5032835;28;20229;-85
2021/05/19 07:51:36;;;;;;;2.05;1.83;;;;;;;;;;5033635;28;20537;-85
2021/05/19 07:54:07;;;;;;;2.20;2.00;;;;;;;;;;5033740;28;20673;-84
2021/05/19 07:56:39;;;;;;;2.35;2.10;;;;;;;;;;5033696;28;20216;-84
2021/05/19 07:59:08;;;;;;;3.67;3.35;;;;;;;;;;5033454;28;20202;-83
2021/05/19 08:02:01;;;;;;;3.95;2.42;;;;;;;;;;5034084;28;20221;-83
2021/05/19 08:04:29;;;;;;;2.78;2.22;;;;;;;;;;5034152;28;20669;-83
2021/05/19 08:06:56;;;;;;;3.88;2.67;;;;;;;;;;5033204;28;20199;-84
2021/05/19 08:09:23;;;;;;;4.00;2.65;;;;;;;;;;5032719;28;20222;-84
2021/05/19 08:11:51;;;;;;;5.28;3.72;;;;;;;;;;5033285;28;20225;-84
2021/05/19 08:14:18;;;;;;;5.53;3.65;;;;;;;;;;5033080;28;20195;-84
2021/05/19 08:16:45;;;;;;;3.88;2.88;;;;;;;;;;5032139;28;20230;-84
2021/05/19 08:19:12;;;;;;;22.02;5.75;;;;;;;;;;5033809;28;20731;-84
2021/05/19 08:21:40;;;;;;;24.30;5.95;;;;;;;;;;5034701;28;20264;-84
2021/05/19 08:24:08;;;;;;;16.63;4.38;;;;;;;;;;5034070;28;20685;-84
2021/05/19 08:26:35;;;;;;;30.88;6.63;;;;;;;;;;5033474;28;20201;-85
2021/05/19 08:29:03;;;;;;;29.48;6.57;;;;;;;;;;5032967;28;20206;-83
2021/05/19 08:31:30;;;;;;;6.25;5.10;;;;;;;;;;5032709;28;20238;-85
2021/05/19 08:33:57;;;;;;;5.10;4.63;;;;;;;;;;5033633;28;20676;-84
2021/05/19 08:36:25;;;;;;;6.75;5.25;;;;;;;;;;5034101;28;20198;-84
2021/05/19 08:38:53;;;;;;;5.70;4.35;;;;;;;;;;5033381;28;20195;-83
2021/05/19 08:41:26;;;;;;;5.88;4.95;;;;;;;;;;5033873;28;20222;-85
2021/05/19 08:43:53;;;;;;;5.35;4.65;;;;;;;;;;5033797;28;20664;-85
2021/05/19 08:46:20;;;;;;;28.58;8.13;;;;;;;;;;5033420;28;20209;-85
2021/05/19 08:48:58;;;;;;;4.28;3.88;;;;;;;;;;5032392;28;20203;-85
2021/05/19 08:51:25;;;;;;;5.15;4.65;;;;;;;;;;5032794;28;20237;-86
2021/05/19 08:53:51;;;;;;;5.13;4.50;;;;;;;;;;5034675;28;20198;-86
2021/05/19 08:56:18;;;;;;;10.50;5.00;;;;;;;;;;5037036;28;20543;-86
2021/05/19 08:58:45;;;;;;;8.27;5.13;;;;;;;;;;5036955;28;20217;-87
2021/05/19 09:01:20;;;;;;;9.45;5.82;;;;;;;;;;5037291;28;20218;-86
2021/05/19 09:04:02;;;;;;;41.35;8.95;;;;;;;;;;5037985;28;20574;-86
2021/05/19 09:06:29;;;;;;;26.77;9.40;;;;;;;;;;5037844;28;20233;-86
2021/05/19 09:08:56;;;;;;;24.25;8.68;;;;;;;;;;5036802;28;20202;-86
2021/05/19 09:11:23;;;;;;;7.75;6.75;;;;;;;;;;5036365;28;20233;-86
2021/05/19 09:13:50;;;;;;;10.43;6.05;;;;;;;;;;5036168;28;20236;-86
2021/05/19 09:16:28;;;;;;;6.22;5.63;;;;;;;;;;5036382;28;20226;-86
2021/05/19 09:18:58;;;;;;;9.10;6.20;;;;;;;;;;5036424;28;20256;-86
2021/05/19 09:21:38;;;;;;;12.90;7.03;;;;;;;;;;5036051;28;20218;-86
2021/05/19 09:24:09;;;;;;;10.20;7.22;;;;;;;;;;5035784;28;20259;-87
2021/05/19 09:26:52;;;;;;;7.30;6.07;;;;;;;;;;5035921;28;20508;-87
2021/05/19 09:29:22;;;;;;;7.57;6.70;;;;;;;;;;5036006;28;20202;-86
2021/05/19 09:31:55;;;;;;;8.43;6.97;;;;;;;;;;5036129;28;20597;-87
2021/05/19 09:34:25;;;;;;;7.03;6.18;;;;;;;;;;5036081;28;20665;-86
2021/05/19 09:36:52;;;;;;;7.03;6.03;;;;;;;;;;5035877;28;20638;-86
2021/05/19 09:39:19;;;;;;;6.72;6.13;;;;;;;;;;5036854;28;20314;-86
2021/05/19 09:41:46;;;;;;;37.63;10.88;;;;;;;;;;5036686;28;20210;-86
2021/05/19 09:44:13;;;;;;;11.82;5.28;;;;;;;;;;5035945;28;20202;-86
2021/05/19 09:46:48;;;;;;;8.98;4.95;;;;;;;;;;5036678;28;20202;-85
2021/05/19 09:49:18;;;;;;;6.75;3.70;;;;;;;;;;5036287;28;20204;-85
2021/05/19 09:51:48;;;;;;;5.07;2.78;;;;;;;;;;5035905;28;20276;-85
2021/05/19 09:54:29;;;;;;;4.97;2.58;;;;;;;;;;5036021;28;20554;-86
2021/05/19 09:56:59;;;;;;;3.25;2.95;;;;;;;;;;5036224;28;20202;-85
2021/05/19 09:59:26;;;;;;;2.75;2.53;;;;;;;;;;5035819;28;20222;-84
2021/05/19 10:01:55;;;;;;;36.33;5.65;;;;;;;;;;5035449;28;20203;-86
2021/05/19 10:04:26;;;;;;;3.15;1.77;;;;;;;;;;5035478;28;20569;-86
2021/05/19 10:06:53;;;;;;;1.20;1.10;;;;;;;;;;5034968;28;20198;-86
2021/05/19 10:09:20;;;;;;;1.00;0.90;;;;;;;;;;5035189;28;20199;-86
2021/05/19 10:11:47;;;;;;;1.85;1.60;;;;;;;;;;5035147;28;20229;-86
2021/05/19 10:14:15;;;;;;;1.58;1.48;;;;;;;;;;5035092;28;20213;-86
2021/05/19 10:16:45;;;;;;;1.55;1.45;;;;;;;;;;5036398;28;20603;-86
2021/05/19 10:19:17;;;;;;;1.48;1.38;;;;;;;;;;5035430;28;20205;-86
2021/05/19 10:21:44;;;;;;;1.85;1.58;;;;;;;;;;5035488;28;20206;-86
2021/05/19 10:24:12;;;;;;;3.53;2.13;;;;;;;;;;5036349;28;20190;-87
2021/05/19 10:27:02;;;;;;;2.17;1.98;;;;;;;;;;5035978;28;20203;-87
2021/05/19 10:29:56;;;;;;;3.42;2.60;;;;;;;;;;5035657;28;20777;-86
2021/05/19 10:32:34;;;;;;;2.85;2.65;;;;;;;;;;5035332;28;20226;-86
2021/05/19 10:35:03;;;;;;;4.32;2.28;;;;;;;;;;5035718;28;20202;-86
2021/05/19 10:37:45;;;;;;;2.97;2.78;;;;;;;;;;5036300;28;20198;-85
2021/05/19 10:40:29;;;;;;;4.10;3.10;;;;;;;;;;5035212;28;20585;-85
2021/05/19 10:43:03;;;;;;;2.63;2.42;;;;;;;;;;5036519;28;20668;-85
2021/05/19 10:45:30;;;;;;;3.60;2.97;;;;;;;;;;5035099;28;20204;-84
2021/05/19 10:47:57;;;;;;;2.55;2.35;;;;;;;;;;5035250;28;20206;-84
2021/05/19 10:50:31;;;;;;;2.42;2.22;;;;;;;;;;5034951;28;20290;-85
2021/05/19 10:58:50;;;;;;;2.60;2.40;;;;;;;;;;5035180;28;20204;-85
2021/05/19 11:01:42;;;;;;;2.33;2.15;;;;;;;;;;5036244;28;20222;-85
2021/05/19 11:04:17;;;;;;;1.80;1.70;;;;;;;;;;5035227;28;20669;-85
2021/05/19 11:07:09;;;;;;;2.30;2.13;;;;;;;;;;5035118;28;20190;-85
2021/05/19 11:09:41;;;;;;;3.10;2.80;;;;;;;;;;5034995;28;20227;-85
2021/05/19 11:12:48;;;;;;;4.53;3.88;;;;;;;;;;5033831;28;20649;-85
2021/05/19 11:15:48;;;;;;;5.57;3.20;;;;;;;;;;5034505;28;20202;-86
2021/05/19 11:18:19;;;;;;;3.03;2.72;;;;;;;;;;5010703;28;20634;-85
2021/05/19 11:20:47;;;;;;;3.03;2.80;;;;;;;;;;5014340;28;20293;-85
2021/05/19 11:23:15;;;;;;;2.60;2.40;;;;;;;;;;5014382;28;20683;-85
2021/05/19 11:25:42;;;;;;;2.42;2.22;;;;;;;;;;5015855;28;20188;-85
2021/05/19 11:28:09;;;;;;;2.25;2.10;;;;;;;;;;5016856;28;20200;-86
2021/05/19 11:30:36;;;;;;;2.58;2.38;;;;;;;;;;5016848;28;20231;-85
2021/05/19 11:33:06;;;;;;;3.15;1.95;;;;;;;;;;5017106;28;20264;-86
2021/05/19 11:35:33;;;;;;;2.95;2.75;;;;;;;;;;5017079;28;20207;-85
2021/05/19 11:38:03;;;;;;;2.80;2.60;;;;;;;;;;5017650;28;20206;-85
2021/05/19 11:40:41;;;;;;;3.35;3.05;;;;;;;;;;5014202;28;20731;-85
2021/05/19 11:43:09;;;;;;;4.13;3.75;;;;;;;;;;5013506;28;20232;-85
2021/05/19 11:45:36;;;;;;;51.97;8.63;;;;;;;;;;5013771;28;20198;-84
2021/05/19 11:48:03;;;;;;;27.30;6.78;;;;;;;;;;5013773;28;20580;-85
2021/05/19 11:50:32;;;;;;;20.60;4.85;;;;;;;;;;5014486;28;20226;-85
2021/05/19 11:53:02;;;;;;;27.65;7.30;;;;;;;;;;5015815;28;20199;-84
2021/05/19 11:55:37;;;;;;;10.85;3.55;;;;;;;;;;5015265;28;20260;-85
2021/05/19 11:58:11;;;;;;;16.58;4.93;;;;;;;;;;5015233;28;20203;-85
2021/05/19 12:00:42;;;;;;;34.10;6.20;;;;;;;;;;5014285;28;20616;-85
2021/05/19 12:03:09;;;;;;;61.08;8.55;;;;;;;;;;5014447;28;20203;-84
2021/05/19 12:05:53;;;;;;;3.58;2.38;;;;;;;;;;5014048;28;20203;-85
2021/05/19 12:08:23;;;;;;;5.40;2.90;;;;;;;;;;5014133;28;20250;-85
2021/05/19 12:11:05;;;;;;;8.82;2.95;;;;;;;;;;5014177;28;20223;-84
2021/05/19 12:13:35;;;;;;;2.55;2.08;;;;;;;;;;5015248;28;20202;-84
2021/05/19 12:16:03;;;;;;;2.47;2.28;;;;;;;;;;5018957;28;20233;-85
2021/05/19 12:18:30;;;;;;;2.38;2.22;;;;;;;;;;5034977;28;20563;-85
2021/05/19 12:20:57;;;;;;;71.00;10.90;;;;;;;;;;5034227;28;20229;-85
2021/05/19 12:23:24;;;;;;;14.43;3.72;;;;;;;;;;5034827;28;20657;-84
2021/05/19 12:25:56;;;;;;;4.07;3.25;;;;;;;;;;5034262;28;20199;-84
2021/05/19 12:28:25;;;;;;;4.10;2.90;;;;;;;;;;5033978;28;20202;-85
2021/05/19 12:30:58;;;;;;;2.20;2.03;;;;;;;;;;5033804;28;20226;-85
2021/05/19 12:33:27;;;;;;;2.58;2.38;;;;;;;;;;5035184;28;20198;-85
2021/05/19 12:35:54;;;;;;;2.60;2.40;;;;;;;;;;5032464;28;20203;-84
2021/05/19 12:38:24;;;;;;;3.22;2.63;;;;;;;;;;5033463;28;20660;-84
2021/05/19 12:40:55;;;;;;;5.00;3.42;;;;;;;;;;5033885;28;20222;-85
2021/05/19 12:43:27;;;;;;;16.13;3.90;;;;;;;;;;5033657;28;20202;-85
2021/05/19 12:46:12;;;;;;;5.88;2.65;;;;;;;;;;5033730;28;20608;-84
2021/05/19 12:48:40;;;;;;;7.70;3.58;;;;;;;;;;5033469;28;20198;-85
2021/05/19 12:51:08;;;;;;;3.17;2.45;;;;;;;;;;5033340;28;20233;-85
2021/05/19 12:53:40;;;;;;;6.80;3.38;;;;;;;;;;5033515;28;20202;-85
2021/05/19 12:56:12;;;;;;;2.50;2.30;;;;;;;;;;5033309;28;20206;-85
2021/05/19 12:58:49;;;;;;;2.83;2.63;;;;;;;;;;5033428;28;20206;-85
2021/05/19 13:01:17;;;;;;;3.15;2.80;;;;;;;;;;5033731;28;20249;-85
2021/05/19 13:03:44;;;;;;;2.60;2.40;;;;;;;;;;5033820;28;20187;-85
2021/05/19 13:06:11;;;;;;;3.30;3.10;;;;;;;;;;5032921;28;20252;-85
2021/05/19 13:08:38;;;;;;;3.78;3.20;;;;;;;;;;5033359;28;20294;-84
2021/05/19 13:11:08;;;;;;;3.53;3.30;;;;;;;;;;5032780;28;20504;-84
2021/05/19 13:13:38;;;;;;;3.80;3.50;;;;;;;;;;5033190;28;20214;-84
2021/05/19 13:16:08;;;;;;;3.47;3.17;;;;;;;;;;5033209;28;20268;-84
2021/05/19 13:18:42;;;;;;;4.05;3.60;;;;;;;;;;5033534;28;20203;-84
2021/05/19 13:21:12;;;;;;;3.70;3.40;;;;;;;;;;5033298;28;20279;-84
2021/05/19 13:23:46;;;;;;;4.78;3.70;;;;;;;;;;5033160;28;20289;-84
2021/05/19 13:26:14;;;;;;;4.07;3.38;;;;;;;;;;5033677;28;20186;-84
2021/05/19 13:28:43;;;;;;;3.72;3.42;;;;;;;;;;5033398;28;20202;-85
2021/05/19 13:31:12;;;;;;;4.07;3.70;;;;;;;;;;5033548;28;20219;-84
2021/05/19 13:33:55;;;;;;;5.32;3.05;;;;;;;;;;5033747;28;20195;-84
2021/05/19 13:36:32;;;;;;;3.78;3.47;;;;;;;;;;5033999;28;20210;-85
2021/05/19 13:38:59;;;;;;;9.27;3.70;;;;;;;;;;5034241;28;20265;-85
2021/05/19 13:41:26;;;;;;;3.10;2.78;;;;;;;;;;5037269;28;20663;-84
2021/05/19 13:43:54;;;;;;;2.97;2.60;;;;;;;;;;5036301;28;20210;-85
2021/05/19 13:46:21;;;;;;;2.80;2.60;;;;;;;;;;5037354;28;20743;-83
2021/05/19 13:48:48;;;;;;;3.85;3.55;;;;;;;;;;5036198;28;20206;-85
2021/05/19 13:51:15;;;;;;;4.43;3.05;;;;;;;;;;5036379;28;20230;-85
2021/05/19 13:53:41;;;;;;;3.17;2.90;;;;;;;;;;5036426;28;20205;-85
2021/05/19 13:56:08;;;;;;;3.40;3.10;;;;;;;;;;5035674;28;20214;-85
2021/05/19 13:58:36;;;;;;;2.63;2.42;;;;;;;;;;5036299;28;20211;-85
2021/05/19 14:01:07;;;;;;;3.97;3.03;;;;;;;;;;5037396;28;20708;-84
2021/05/19 14:03:34;;;;;;;3.22;2.90;;;;;;;;;;5036722;28;20657;-84
2021/05/19 14:06:01;;;;;;;3.65;3.35;;;;;;;;;;5036816;28;20222;-84
2021/05/19 14:08:29;;;;;;;2.70;2.50;;;;;;;;;;5036898;28;20220;-84
2021/05/19 14:11:01;;;;;;;3.65;2.50;;;;;;;;;;5037244;28;20225;-85
2021/05/19 14:13:29;;;;;;;2.47;2.28;;;;;;;;;;5037926;28;20313;-84
2021/05/19 14:16:03;;;;;;;3.38;3.08;;;;;;;;;;5036790;28;20230;-85
2021/05/19 14:18:45;;;;;;;3.30;2.85;;;;;;;;;;5036860;28;20203;-84
2021/05/19 14:27:01;;;;;;;3.65;3.35;;;;;;;;;;4954688;28;20216;-84
2021/05/19 14:29:31;;;;;;;4.68;2.88;;;;;;;;;;5021470;28;20222;-84
2021/05/19 14:31:58;;;;;;;3.50;3.05;;;;;;;;;;5036068;28;20230;-86
2021/05/19 14:34:29;;;;;;;4.38;3.00;;;;;;;;;;5035055;28;20209;-85
2021/05/19 14:59:43;;;;;;;2.97;2.78;;;;;;;;;;4954716;28;20231;-84
2021/05/19 15:02:10;;;;;;;2.70;2.47;;;;;;;;;;4954847;29;20201;-85
2021/05/19 15:04:37;;;;;;;2.92;2.47;;;;;;;;;;4992703;28;20202;-85
2021/05/19 15:07:05;;;;;;;2.85;2.65;;;;;;;;;;5034848;28;20202;-85
2021/05/19 15:09:32;;;;;;;3.30;2.42;;;;;;;;;;5033912;28;20218;-85
2021/05/19 15:12:00;;;;;;;2.30;2.10;;;;;;;;;;5035455;28;20210;-85
2021/05/19 15:14:27;;;;;;;2.65;2.33;;;;;;;;;;5035752;28;20202;-85
2021/05/19 15:16:53;;;;;;;2.65;2.45;;;;;;;;;;5036275;28;20230;-85
2021/05/19 15:19:21;;;;;;;2.35;2.15;;;;;;;;;;5035800;28;20665;-85
2021/05/19 15:21:48;;;;;;;2.50;2.30;;;;;;;;;;5036150;28;20256;-85
2021/05/19 15:24:16;;;;;;;2.88;2.67;;;;;;;;;;5036603;28;20207;-85
2021/05/19 15:26:43;;;;;;;2.88;2.67;;;;;;;;;;5036359;28;20202;-85
2021/05/19 15:29:09;;;;;;;3.35;3.05;;;;;;;;;;5036492;28;20209;-85